createdAt,value
2023-04-21T00:01:58.884Z,5.36
2023-04-21T00:04:25.696Z,5.26
2023-04-21T00:06:56.993Z,5.21
2023-04-21T00:09:23.541Z,5.18
2023-04-21T00:11:54.587Z,5.11
2023-04-21T00:14:21.364Z,5.10
2023-04-21T00:16:52.386Z,5.01
2023-04-21T00:19:23.882Z,4.87
2023-04-21T00:21:58.511Z,4.94
2023-04-21T00:24:25.988Z,4.85
2023-04-21T00:26:54.669Z,4.83
2023-04-21T00:29:21.309Z,4.78
2023-04-21T00:31:48.285Z,4.73
2023-04-21T00:34:14.966Z,4.73
2023-04-21T00:36:41.460Z,4.69
2023-04-21T00:39:07.920Z,4.62
2023-04-21T00:41:36.099Z,4.61
2023-04-21T00:44:10.259Z,4.57
2023-04-21T00:46:38.545Z,4.57
2023-04-21T00:49:06.958Z,4.56
2023-04-21T00:51:35.044Z,4.55
2023-04-21T00:54:06.820Z,4.59
2023-04-21T00:56:34.892Z,4.59
2023-04-21T00:59:04.274Z,4.57
2023-04-21T01:01:34.346Z,4.58
2023-04-21T01:04:01.530Z,4.59
2023-04-21T01:06:29.627Z,4.60
2023-04-21T01:08:56.340Z,4.53
2023-04-21T01:11:22.702Z,4.54
2023-04-21T01:13:53.296Z,4.53
2023-04-21T01:16:21.598Z,4.63
2023-04-21T01:18:48.102Z,4.66
2023-04-21T01:21:19.078Z,4.65
2023-04-21T01:23:46.109Z,4.61
2023-04-21T01:26:17.213Z,4.66
2023-04-21T01:28:44.116Z,4.84
2023-04-21T01:31:10.640Z,4.70
2023-04-21T01:33:42.143Z,4.69
2023-04-21T01:36:09.719Z,4.66
2023-04-21T01:38:42.556Z,4.68
2023-04-21T01:41:12.550Z,4.64
2023-04-21T01:43:39.227Z,4.58
2023-04-21T01:46:06.573Z,4.56
2023-04-21T01:48:33.105Z,4.56
2023-04-21T01:50:59.559Z,4.42
2023-04-21T01:53:26.891Z,4.51
2023-04-21T01:55:53.330Z,4.52
2023-04-21T01:58:22.863Z,4.53
2023-04-21T02:00:49.434Z,4.42
2023-04-21T02:03:16.216Z,4.40
2023-04-21T02:05:42.770Z,4.41
2023-04-21T02:08:09.258Z,4.39
2023-04-21T02:10:35.806Z,4.50
2023-04-21T02:13:02.289Z,4.43
2023-04-21T02:15:31.435Z,4.34
2023-04-21T02:17:58.051Z,4.36
2023-04-21T02:20:24.553Z,4.30
2023-04-21T02:22:50.928Z,4.24
2023-04-21T02:25:17.367Z,4.14
2023-04-21T02:27:43.732Z,4.08
2023-04-21T02:30:11.145Z,4.04
2023-04-21T02:32:38.133Z,4.02
2023-04-21T02:35:08.232Z,3.99
2023-04-21T02:37:34.786Z,3.90
2023-04-21T02:40:03.709Z,3.89
2023-04-21T02:42:30.290Z,3.94
2023-04-21T02:44:59.315Z,3.85
2023-04-21T02:47:26.097Z,3.83
2023-04-21T02:49:52.653Z,3.79
2023-04-21T02:52:19.337Z,3.77
2023-04-21T02:54:45.807Z,3.76
2023-04-21T02:57:12.302Z,3.77
2023-04-21T02:59:38.694Z,3.74
2023-04-21T03:02:05.169Z,3.75
2023-04-21T03:04:32.400Z,3.67
2023-04-21T03:07:01.685Z,3.66
2023-04-21T03:09:30.487Z,3.65
2023-04-21T03:11:59.330Z,3.67
2023-04-21T03:14:33.687Z,3.62
2023-04-21T03:17:00.182Z,3.56
2023-04-21T03:19:26.728Z,3.49
2023-04-21T03:21:53.169Z,3.56
2023-04-21T03:24:19.655Z,3.51
2023-04-21T03:26:48.304Z,3.49
2023-04-21T03:29:18.070Z,3.44
2023-04-21T03:31:44.963Z,3.44
2023-04-21T03:34:13.911Z,3.43
2023-04-21T03:36:40.578Z,3.43
2023-04-21T03:39:19.090Z,3.47
2023-04-21T03:41:46.396Z,3.44
2023-04-21T03:44:12.759Z,3.51
2023-04-21T03:46:39.112Z,3.49
2023-04-21T03:49:05.621Z,3.54
2023-04-21T03:51:32.424Z,3.40
2023-04-21T03:54:01.154Z,3.52
2023-04-21T03:56:27.634Z,3.55
2023-04-21T03:58:56.575Z,3.55
2023-04-21T04:01:23.010Z,3.57
2023-04-21T04:03:49.647Z,3.55
2023-04-21T04:06:16.310Z,3.61
2023-04-21T04:08:42.650Z,3.58
2023-04-21T04:11:11.541Z,3.45
2023-04-21T04:13:38.015Z,3.55
2023-04-21T04:16:07.258Z,3.55
2023-04-21T04:18:33.850Z,3.53
2023-04-21T04:21:08.289Z,3.53
2023-04-21T04:23:35.482Z,3.46
2023-04-21T04:26:04.529Z,3.41
2023-04-21T04:28:33.698Z,3.41
2023-04-21T04:31:00.761Z,3.32
2023-04-21T04:33:27.403Z,3.32
2023-04-21T04:35:54.604Z,3.19
2023-04-21T04:38:23.056Z,3.28
2023-04-21T04:40:57.447Z,3.29
2023-04-21T04:43:25.433Z,3.25
2023-04-21T04:45:54.479Z,3.18
2023-04-21T04:48:20.910Z,3.17
2023-04-21T04:50:47.562Z,3.22
2023-04-21T04:53:14.034Z,3.25
2023-04-21T04:55:40.619Z,3.35
2023-04-21T04:58:07.118Z,3.45
2023-04-21T05:00:33.503Z,3.33
2023-04-21T05:03:00.016Z,3.47
2023-04-21T05:05:26.585Z,3.39
2023-04-21T05:07:55.523Z,3.46
2023-04-21T05:10:21.941Z,3.50
2023-04-21T05:12:50.601Z,3.56
2023-04-21T05:15:18.391Z,3.65
2023-04-21T05:17:44.787Z,3.71
2023-04-21T05:20:11.734Z,3.79
2023-04-21T05:22:38.514Z,3.89
2023-04-21T05:25:10.312Z,3.92
2023-04-21T05:27:36.776Z,3.96
2023-04-21T05:30:03.280Z,4.11
2023-04-21T05:32:29.751Z,4.10
2023-04-21T05:34:56.215Z,4.14
2023-04-21T05:37:22.594Z,4.16
2023-04-21T05:39:48.957Z,4.13
2023-04-21T05:42:15.708Z,4.25
2023-04-21T05:44:42.078Z,4.42
2023-04-21T05:47:08.517Z,4.41
2023-04-21T05:49:35.105Z,4.54
2023-04-21T05:52:01.497Z,4.68
2023-04-21T05:54:27.912Z,4.56
2023-04-21T05:56:54.291Z,4.75
2023-04-21T05:59:20.774Z,4.71
2023-04-21T06:01:50.113Z,4.76
2023-04-21T06:04:22.345Z,4.80
2023-04-21T06:06:49.050Z,4.98
2023-04-21T06:09:17.858Z,4.95
2023-04-21T06:11:44.364Z,5.04
2023-04-21T06:14:10.844Z,5.15
2023-04-21T06:16:37.255Z,5.14
2023-04-21T06:19:03.807Z,5.19
2023-04-21T06:21:30.804Z,5.18
2023-04-21T06:23:57.313Z,5.58
2023-04-21T06:26:23.836Z,5.48
2023-04-21T06:28:50.381Z,5.53
2023-04-21T06:31:17.700Z,5.55
2023-04-21T06:33:44.270Z,5.70
2023-04-21T06:36:10.741Z,5.95
2023-04-21T06:38:37.333Z,6.03
2023-04-21T06:41:04.647Z,6.41
2023-04-21T06:43:31.236Z,6.57
2023-04-21T06:46:02.649Z,6.14
2023-04-21T06:48:30.348Z,6.41
2023-04-21T06:50:56.925Z,6.64
2023-04-21T06:53:23.530Z,6.45
2023-04-21T06:55:53.391Z,6.64
2023-04-21T06:58:22.087Z,6.76
2023-04-21T07:00:48.589Z,6.72
2023-04-21T07:03:17.979Z,6.55
2023-04-21T07:05:44.599Z,6.57
2023-04-21T07:08:11.015Z,6.58
2023-04-21T07:10:37.477Z,6.37
2023-04-21T07:13:04.027Z,6.40
2023-04-21T07:15:32.643Z,6.38
2023-04-21T07:17:59.231Z,6.18
2023-04-21T07:20:25.927Z,6.29
2023-04-21T07:22:54.977Z,6.26
2023-04-21T07:25:21.563Z,6.43
2023-04-21T07:27:48.017Z,6.52
2023-04-21T07:30:14.770Z,6.61
2023-04-21T07:32:41.283Z,6.95
2023-04-21T07:35:08.365Z,6.85
2023-04-21T07:37:35.012Z,6.92
2023-04-21T07:40:01.610Z,6.71
2023-04-21T07:42:28.202Z,7.10
2023-04-21T07:44:56.165Z,6.90
2023-04-21T07:47:22.596Z,7.34
2023-04-21T07:49:49.130Z,7.90
2023-04-21T07:52:15.585Z,8.45
2023-04-21T07:54:44.363Z,8.13
2023-04-21T07:57:11.300Z,8.28
2023-04-21T07:59:37.993Z,8.24
2023-04-21T08:02:04.807Z,8.60
2023-04-21T08:04:31.530Z,9.37
2023-04-21T08:07:00.836Z,9.41
2023-04-21T08:09:28.046Z,9.51
2023-04-21T08:11:55.313Z,9.48
2023-04-21T08:14:22.106Z,10.36
2023-04-21T08:16:51.349Z,9.89
2023-04-21T08:19:18.066Z,10.82
2023-04-21T08:21:44.622Z,11.15
2023-04-21T08:24:11.177Z,11.43
2023-04-21T08:26:37.698Z,11.64
2023-04-21T08:29:07.029Z,10.89
2023-04-21T08:31:33.896Z,12.25
2023-04-21T08:34:03.057Z,11.45
2023-04-21T08:36:30.770Z,11.98
2023-04-21T08:39:00.250Z,11.88
2023-04-21T08:41:27.094Z,12.24
2023-04-21T08:43:55.918Z,11.73
2023-04-21T08:46:23.153Z,10.96
2023-04-21T08:48:49.855Z,11.26
2023-04-21T08:51:22.984Z,11.68
2023-04-21T08:53:49.726Z,12.41
2023-04-21T08:56:18.327Z,12.48
2023-04-21T08:58:47.154Z,12.72
2023-04-21T09:01:13.864Z,12.88
2023-04-21T09:03:40.675Z,13.11
2023-04-21T09:06:09.755Z,13.44
2023-04-21T09:08:43.687Z,13.15
2023-04-21T09:11:14.385Z,13.17
2023-04-21T09:13:43.145Z,13.96
2023-04-21T09:16:23.681Z,14.17
2023-04-21T09:18:51.340Z,13.61
2023-04-21T09:21:19.667Z,13.46
2023-04-21T09:23:53.493Z,14.63
2023-04-21T09:26:23.075Z,14.42
2023-04-21T09:28:51.115Z,14.11
2023-04-21T09:31:21.881Z,14.40
2023-04-21T09:36:28.143Z,15.52
2023-04-21T09:39:08.934Z,15.16
2023-04-21T09:41:41.418Z,15.16
2023-04-21T09:44:10.176Z,16.15
2023-04-21T09:46:37.391Z,14.73
2023-04-21T09:49:04.876Z,15.24
2023-04-21T09:52:05.271Z,15.43
2023-04-21T09:54:29.672Z,15.95
2023-04-21T09:56:59.807Z,16.17
2023-04-21T09:59:32.970Z,15.03
2023-04-21T10:02:00.616Z,15.91
2023-04-21T10:04:31.262Z,16.47
2023-04-21T10:07:00.967Z,15.74
2023-04-21T10:09:50.793Z,16.80
2023-04-21T10:12:18.447Z,16.39
2023-04-21T10:14:44.921Z,16.46
2023-04-21T10:17:11.512Z,16.06
2023-04-21T10:19:47.638Z,16.85
2023-04-21T10:22:14.094Z,15.82
2023-04-21T10:24:42.181Z,16.34
2023-04-21T10:27:12.980Z,16.54
2023-04-21T10:29:54.724Z,16.79
2023-04-21T10:32:41.363Z,16.57
2023-04-21T10:35:13.548Z,16.69
2023-04-21T10:37:42.460Z,16.89
2023-04-21T10:40:44.166Z,17.35
2023-04-21T10:43:42.550Z,16.30
2023-04-21T10:46:40.305Z,17.38
2023-04-21T10:49:08.062Z,17.24
2023-04-21T10:52:03.180Z,17.24
2023-04-21T10:54:36.968Z,16.77
2023-04-21T10:57:07.738Z,17.08
2023-04-21T10:59:35.067Z,17.20
2023-04-21T11:02:08.940Z,17.46
2023-04-21T11:04:35.960Z,17.65
2023-04-21T11:07:13.325Z,17.57
2023-04-21T11:09:41.626Z,17.69
2023-04-21T11:12:14.538Z,17.76
2023-04-21T11:14:47.789Z,16.93
2023-04-21T11:17:16.404Z,17.67
2023-04-21T11:19:52.555Z,17.53
2023-04-21T11:22:24.250Z,17.70
2023-04-21T11:24:54.385Z,17.30
2023-04-21T11:27:22.320Z,17.47
2023-04-21T11:29:52.307Z,18.02
2023-04-21T11:32:19.206Z,18.19
2023-04-21T11:34:45.831Z,17.91
2023-04-21T11:37:20.895Z,18.19
2023-04-21T11:39:47.346Z,18.24
2023-04-21T11:42:21.164Z,18.66
2023-04-21T11:44:47.566Z,18.21
2023-04-21T11:47:22.874Z,17.89
2023-04-21T11:50:01.470Z,18.01
2023-04-21T11:52:30.944Z,17.72
2023-04-21T11:55:01.786Z,17.58
2023-04-21T11:57:32.560Z,17.92
2023-04-21T12:00:00.916Z,18.13
2023-04-21T12:02:32.818Z,18.07
2023-04-21T12:05:05.214Z,17.86
2023-04-21T12:07:58.305Z,17.93
2023-04-21T12:10:24.694Z,18.22
2023-04-21T12:12:51.764Z,18.20
2023-04-21T12:15:21.367Z,18.01
2023-04-21T12:17:52.447Z,18.14
2023-04-21T12:20:22.256Z,18.07
2023-04-21T12:22:53.954Z,18.05
2023-04-21T12:25:20.378Z,18.17
2023-04-21T12:27:50.935Z,18.14
2023-04-21T12:30:18.088Z,18.12
2023-04-21T12:32:44.648Z,18.47
2023-04-21T12:35:14.257Z,18.39
2023-04-21T12:37:41.005Z,18.19
2023-04-21T12:40:08.152Z,18.32
2023-04-21T12:42:37.240Z,18.49
2023-04-21T12:45:07.225Z,18.27
2023-04-21T12:47:34.603Z,18.06
2023-04-21T12:50:01.291Z,18.13
2023-04-21T12:52:30.312Z,18.37
2023-04-21T12:54:56.659Z,18.10
2023-04-21T12:57:23.121Z,18.14
2023-04-21T12:59:49.570Z,17.88
2023-04-21T13:02:18.787Z,17.76
2023-04-21T13:04:45.348Z,17.79
2023-04-21T13:07:12.091Z,17.79
2023-04-21T13:09:38.725Z,17.61
2023-04-21T13:12:07.894Z,17.66
2023-04-21T13:14:37.343Z,17.52
2023-04-21T13:17:06.346Z,17.57
2023-04-21T13:19:33.238Z,17.55
2023-04-21T13:22:00.116Z,17.93
2023-04-21T13:24:26.798Z,17.71
2023-04-21T13:26:56.046Z,18.07
2023-04-21T13:29:29.289Z,18.18
2023-04-21T13:31:56.891Z,18.03
2023-04-21T13:34:23.284Z,18.05
2023-04-21T13:36:50.604Z,18.14
2023-04-21T13:39:17.201Z,18.15
2023-04-21T13:41:43.680Z,18.13
2023-04-21T13:44:10.110Z,18.20
2023-04-21T13:46:37.969Z,18.32
2023-04-21T13:49:04.528Z,18.09
2023-04-21T13:51:32.195Z,17.95
2023-04-21T13:53:58.691Z,18.04
2023-04-21T13:56:25.499Z,18.01
2023-04-21T13:58:52.031Z,18.37
2023-04-21T14:01:20.670Z,18.62
2023-04-21T14:03:50.747Z,18.33
2023-04-21T14:06:17.493Z,18.22
2023-04-21T14:08:46.117Z,18.42
2023-04-21T14:11:14.980Z,18.16
2023-04-21T14:13:48.055Z,18.41
2023-04-21T14:16:26.659Z,18.07
2023-04-21T14:18:53.580Z,18.14
2023-04-21T14:21:19.990Z,18.18
2023-04-21T14:23:46.598Z,18.17
2023-04-21T14:26:13.310Z,18.07
2023-04-21T14:28:42.498Z,18.17
2023-04-21T14:31:09.231Z,18.31
2023-04-21T14:33:35.896Z,18.18
2023-04-21T14:36:02.371Z,17.75
2023-04-21T14:38:30.594Z,17.82
2023-04-21T14:40:57.198Z,17.86
2023-04-21T14:43:23.736Z,17.64
2023-04-21T14:45:50.336Z,17.90
2023-04-21T14:48:17.278Z,17.77
2023-04-21T14:50:43.952Z,17.86
2023-04-21T14:53:10.952Z,17.66
2023-04-21T14:55:44.533Z,17.57
2023-04-21T14:58:10.945Z,17.48
2023-04-21T15:00:38.889Z,17.60
2023-04-21T15:03:07.897Z,17.59
2023-04-21T15:05:36.851Z,17.55
2023-04-21T15:08:03.532Z,17.39
2023-04-21T15:10:32.197Z,17.58
2023-04-21T15:12:58.921Z,17.54
2023-04-21T15:15:25.612Z,17.48
2023-04-21T15:17:54.609Z,17.65
2023-04-21T15:20:32.550Z,17.60
2023-04-21T15:23:07.742Z,17.59
2023-04-21T15:25:36.223Z,17.58
2023-04-21T15:28:05.056Z,17.65
2023-04-21T15:30:31.508Z,17.85
2023-04-21T15:32:57.969Z,17.65
2023-04-21T15:35:24.538Z,17.76
2023-04-21T15:37:53.331Z,17.76
2023-04-21T15:40:19.800Z,17.74
2023-04-21T15:42:46.330Z,17.61
2023-04-21T15:45:12.816Z,17.55
2023-04-21T15:47:39.511Z,17.64
2023-04-21T15:50:06.658Z,17.52
2023-04-21T15:52:36.136Z,17.63
2023-04-21T15:55:02.721Z,17.67
2023-04-21T15:57:29.736Z,17.70
2023-04-21T15:59:58.508Z,17.75
2023-04-21T16:02:25.121Z,17.67
2023-04-21T16:04:52.121Z,17.78
2023-04-21T16:07:18.799Z,17.92
2023-04-21T16:09:45.231Z,17.91
2023-04-21T16:12:11.675Z,17.96
2023-04-21T16:14:55.259Z,18.01
2023-04-21T16:17:26.513Z,17.75
2023-04-21T16:19:53.829Z,17.77
2023-04-21T16:22:20.398Z,17.74
2023-04-21T16:24:47.117Z,17.69
2023-04-21T16:27:13.663Z,17.65
2023-04-21T16:29:40.103Z,17.53
2023-04-21T16:32:06.984Z,16.99
2023-04-21T16:34:33.705Z,16.61
2023-04-21T16:37:00.589Z,16.41
2023-04-21T16:39:27.651Z,16.08
2023-04-21T16:41:54.164Z,15.84
2023-04-21T16:44:22.887Z,15.60
2023-04-21T16:46:49.436Z,15.57
2023-04-21T16:49:16.077Z,15.46
2023-04-21T16:51:44.889Z,15.15
2023-04-21T16:54:16.420Z,15.00
2023-04-21T16:56:45.791Z,14.95
2023-04-21T16:59:12.156Z,14.88
2023-04-21T17:01:38.612Z,15.05
2023-04-21T17:04:05.168Z,15.03
2023-04-21T17:06:34.239Z,14.97
2023-04-21T17:09:00.619Z,14.95
2023-04-21T17:11:31.281Z,14.94
2023-04-21T17:13:57.837Z,14.96
2023-04-21T17:16:26.927Z,14.91
2023-04-21T17:18:54.806Z,14.93
2023-04-21T17:21:21.163Z,14.96
2023-04-21T17:23:47.670Z,14.96
2023-04-21T17:26:15.126Z,14.99
2023-04-21T17:28:43.896Z,15.03
2023-04-21T17:31:15.783Z,15.07
2023-04-21T17:34:04.164Z,15.03
2023-04-21T17:36:30.953Z,14.96
2023-04-21T17:38:58.266Z,15.02
2023-04-21T17:41:27.649Z,14.98
2023-04-21T17:43:57.204Z,14.96
2023-04-21T17:46:25.351Z,14.98
2023-04-21T17:48:54.531Z,14.93
2023-04-21T17:51:21.173Z,14.90
2023-04-21T17:53:47.831Z,14.92
2023-04-21T17:56:14.495Z,14.84
2023-04-21T17:59:00.062Z,14.70
2023-04-21T18:01:26.898Z,14.58
2023-04-21T18:03:57.033Z,14.46
2023-04-21T18:06:27.401Z,14.45
2023-04-21T18:08:56.276Z,14.47
2023-04-21T18:11:23.066Z,14.53
2023-04-21T18:13:49.619Z,14.55
2023-04-21T18:16:16.399Z,14.48
2023-04-21T18:18:42.798Z,14.55
2023-04-21T18:21:13.872Z,14.47
2023-04-21T18:23:40.363Z,14.42
2023-04-21T18:26:07.701Z,14.48
2023-04-21T18:28:36.766Z,14.44
2023-04-21T18:31:03.529Z,14.07
2023-04-21T18:33:34.595Z,14.06
2023-04-21T18:36:01.331Z,14.10
2023-04-21T18:38:27.725Z,14.14
2023-04-21T18:40:56.390Z,14.19
2023-04-21T18:43:25.447Z,14.12
2023-04-21T18:45:53.980Z,14.21
2023-04-21T18:48:22.811Z,14.14
2023-04-21T18:50:49.242Z,14.10
2023-04-21T18:53:15.713Z,14.05
2023-04-21T18:55:42.055Z,14.10
2023-04-21T18:58:14.786Z,14.09
2023-04-21T19:00:41.242Z,14.11
2023-04-21T19:03:11.085Z,14.07
2023-04-21T19:05:40.667Z,14.00
2023-04-21T19:08:09.569Z,13.86
2023-04-21T19:10:37.684Z,13.85
2023-04-21T19:13:04.441Z,13.89
2023-04-21T19:15:31.001Z,13.93
2023-04-21T19:17:57.607Z,13.88
2023-04-21T19:20:24.027Z,13.72
2023-04-21T19:22:50.862Z,13.61
2023-04-21T19:25:17.570Z,13.60
2023-04-21T19:27:44.597Z,13.47
2023-04-21T19:30:16.118Z,13.28
2023-04-21T19:32:42.551Z,13.24
2023-04-21T19:35:09.371Z,13.23
2023-04-21T19:37:36.257Z,13.27
2023-04-21T19:40:03.355Z,13.15
2023-04-21T19:42:30.432Z,13.15
2023-04-21T19:44:56.943Z,13.06
2023-04-21T19:47:23.301Z,12.99
2023-04-21T19:49:49.818Z,12.98
2023-04-21T19:52:18.496Z,12.89
2023-04-21T19:54:44.911Z,12.85
2023-04-21T19:57:11.345Z,12.81
2023-04-21T19:59:38.225Z,12.83
2023-04-21T20:02:05.124Z,12.82
2023-04-21T20:04:32.120Z,12.76
2023-04-21T20:06:58.831Z,12.71
2023-04-21T20:09:25.308Z,12.83
2023-04-21T20:11:51.703Z,12.78
2023-04-21T20:14:18.858Z,12.78
2023-04-21T20:16:46.447Z,12.73
2023-04-21T20:19:17.229Z,12.62
2023-04-21T20:21:44.167Z,12.76
2023-04-21T20:24:10.520Z,12.63
2023-04-21T20:26:37.147Z,12.74
2023-04-21T20:29:04.041Z,12.78
2023-04-21T20:31:30.471Z,12.83
2023-04-21T20:33:56.900Z,12.76
2023-04-21T20:36:23.400Z,12.74
2023-04-21T20:38:50.569Z,12.74
2023-04-21T20:41:24.173Z,12.70
2023-04-21T20:43:54.055Z,12.70
2023-04-21T20:46:20.443Z,12.79
2023-04-21T20:48:47.005Z,12.79
2023-04-21T20:51:13.491Z,12.70
2023-04-21T20:53:42.665Z,12.73
2023-04-21T20:56:11.666Z,12.65
2023-04-21T20:58:43.218Z,12.69
2023-04-21T21:01:09.751Z,12.79
2023-04-21T21:03:38.953Z,12.69
2023-04-21T21:06:05.788Z,12.74
2023-04-21T21:08:32.191Z,12.70
2023-04-21T21:10:58.612Z,12.70
2023-04-21T21:13:25.086Z,12.71
2023-04-21T21:15:52.144Z,12.66
2023-04-21T21:18:21.258Z,12.60
2023-04-21T21:20:49.933Z,12.61
2023-04-21T21:23:16.271Z,12.57
2023-04-21T21:25:42.709Z,12.63
2023-04-21T21:28:11.564Z,12.63
2023-04-21T21:30:37.897Z,12.64
2023-04-21T21:33:04.345Z,12.59
2023-04-21T21:35:30.911Z,12.56
2023-04-21T21:37:57.355Z,12.61
2023-04-21T21:40:23.875Z,12.58
2023-04-21T21:42:51.313Z,12.54
2023-04-21T21:45:17.777Z,12.57
2023-04-21T21:47:45.843Z,12.44
2023-04-21T21:50:12.582Z,12.29
2023-04-21T21:52:39.101Z,12.37
2023-04-21T21:55:06.377Z,12.39
2023-04-21T21:57:32.917Z,12.35
2023-04-21T22:00:02.339Z,12.31
2023-04-21T22:02:29.126Z,12.19
2023-04-21T22:04:56.347Z,12.20
2023-04-21T22:07:25.090Z,12.18
2023-04-21T22:09:51.807Z,12.17
2023-04-21T22:12:23.160Z,12.15
2023-04-21T22:14:49.618Z,12.10
2023-04-21T22:17:15.993Z,12.15
2023-04-21T22:19:42.432Z,12.14
2023-04-21T22:22:08.918Z,12.13
2023-04-21T22:24:35.381Z,12.15
2023-04-21T22:27:04.505Z,12.15
2023-04-21T22:29:31.115Z,11.97
2023-04-21T22:31:58.057Z,12.19
2023-04-21T22:34:24.512Z,12.22
2023-04-21T22:36:52.011Z,12.06
2023-04-21T22:39:18.444Z,12.18
2023-04-21T22:41:45.646Z,12.20
2023-04-21T22:44:15.208Z,12.26
2023-04-21T22:46:41.783Z,12.17
2023-04-21T22:49:09.116Z,12.17
2023-04-21T22:51:36.357Z,12.20
2023-04-21T22:54:03.230Z,12.15
2023-04-21T22:56:31.956Z,12.20
2023-04-21T22:58:58.502Z,12.16
2023-04-21T23:01:25.277Z,12.11
2023-04-21T23:03:51.874Z,12.18
2023-04-21T23:06:18.321Z,12.19
2023-04-21T23:08:44.966Z,12.23
2023-04-21T23:11:13.793Z,12.31
2023-04-21T23:13:40.532Z,12.25
2023-04-21T23:16:07.248Z,12.15
2023-04-21T23:18:36.206Z,12.16
2023-04-21T23:21:02.575Z,12.15
2023-04-21T23:23:29.054Z,12.26
2023-04-21T23:25:55.485Z,12.22
2023-04-21T23:28:21.965Z,12.23
2023-04-21T23:30:48.506Z,12.30
2023-04-21T23:33:15.018Z,12.27
2023-04-21T23:35:41.461Z,12.27
2023-04-21T23:38:07.935Z,12.22
2023-04-21T23:40:34.305Z,12.21
2023-04-21T23:43:05.673Z,12.14
2023-04-21T23:45:32.288Z,12.13
2023-04-21T23:48:01.216Z,12.16
2023-04-21T23:50:27.660Z,12.09
2023-04-21T23:52:54.021Z,12.02
2023-04-21T23:55:20.593Z,12.07
2023-04-21T23:57:47.035Z,12.04
